sensor_id;sensor_type;location;lat;lon;timestamp;P1;durP1;ratioP1;P2;durP2;ratioP2
71152;SDS011;58822;51.438;5.436;2022-07-23T00:03:11;13.85;;;4.05;;
71152;SDS011;58822;51.438;5.436;2022-07-23T00:05:52;6.10;;;3.70;;
71152;SDS011;58822;51.438;5.436;2022-07-23T00:11:58;6.38;;;3.80;;
71152;SDS011;58822;51.438;5.436;2022-07-23T00:14:28;6.93;;;3.63;;
71152;SDS011;58822;51.438;5.436;2022-07-23T00:17:00;10.13;;;3.97;;
71152;SDS011;58822;51.438;5.436;2022-07-23T00:23:03;8.15;;;4.00;;
71152;SDS011;58822;51.438;5.436;2022-07-23T00:25:34;5.85;;;3.90;;
71152;SDS011;58822;51.438;5.436;2022-07-23T00:28:22;19.77;;;4.13;;
71152;SDS011;58822;51.438;5.436;2022-07-23T00:30:55;6.40;;;4.10;;
71152;SDS011;58822;51.438;5.436;2022-07-23T00:33:46;11.52;;;4.50;;
71152;SDS011;58822;51.438;5.436;2022-07-23T00:36:20;7.60;;;4.40;;
71152;SDS011;58822;51.438;5.436;2022-07-23T00:38:59;7.85;;;4.90;;
71152;SDS011;58822;51.438;5.436;2022-07-23T00:41:33;10.40;;;4.32;;
71152;SDS011;58822;51.438;5.436;2022-07-23T00:44:18;9.25;;;4.40;;
71152;SDS011;58822;51.438;5.436;2022-07-23T01:05:17;6.70;;;3.50;;
71152;SDS011;58822;51.438;5.436;2022-07-23T01:08:05;5.82;;;3.75;;
71152;SDS011;58822;51.438;5.436;2022-07-23T01:10:40;6.53;;;3.33;;
71152;SDS011;58822;51.438;5.436;2022-07-23T06:20:32;8.63;;;5.10;;
71152;SDS011;58822;51.438;5.436;2022-07-23T06:23:04;10.85;;;5.25;;
71152;SDS011;58822;51.438;5.436;2022-07-23T06:25:30;9.95;;;5.45;;
71152;SDS011;58822;51.438;5.436;2022-07-23T06:27:55;9.32;;;5.18;;
71152;SDS011;58822;51.438;5.436;2022-07-23T06:30:21;9.77;;;5.40;;
71152;SDS011;58822;51.438;5.436;2022-07-23T06:32:47;10.43;;;5.65;;
71152;SDS011;58822;51.438;5.436;2022-07-23T06:35:13;11.13;;;4.85;;
71152;SDS011;58822;51.438;5.436;2022-07-23T06:37:38;10.65;;;5.13;;
71152;SDS011;58822;51.438;5.436;2022-07-23T06:40:06;8.30;;;5.13;;
71152;SDS011;58822;51.438;5.436;2022-07-23T06:42:32;11.35;;;5.43;;
71152;SDS011;58822;51.438;5.436;2022-07-23T06:44:57;9.68;;;4.90;;
71152;SDS011;58822;51.438;5.436;2022-07-23T06:47:23;8.23;;;4.28;;
71152;SDS011;58822;51.438;5.436;2022-07-23T06:49:48;7.47;;;4.03;;
71152;SDS011;58822;51.438;5.436;2022-07-23T06:52:14;11.50;;;4.22;;
71152;SDS011;58822;51.438;5.436;2022-07-23T06:54:39;7.65;;;3.95;;
71152;SDS011;58822;51.438;5.436;2022-07-23T06:57:04;7.13;;;3.35;;
71152;SDS011;58822;51.438;5.436;2022-07-23T06:59:30;13.32;;;3.22;;
71152;SDS011;58822;51.438;5.436;2022-07-23T07:01:55;5.63;;;3.08;;
71152;SDS011;58822;51.438;5.436;2022-07-23T07:04:21;7.28;;;3.80;;
71152;SDS011;58822;51.438;5.436;2022-07-23T07:06:47;9.77;;;3.50;;
71152;SDS011;58822;51.438;5.436;2022-07-23T07:09:12;10.00;;;3.25;;
71152;SDS011;58822;51.438;5.436;2022-07-23T07:11:39;6.50;;;3.20;;
71152;SDS011;58822;51.438;5.436;2022-07-23T07:14:04;7.20;;;3.40;;
71152;SDS011;58822;51.438;5.436;2022-07-23T07:16:29;10.63;;;3.13;;
71152;SDS011;58822;51.438;5.436;2022-07-23T07:18:55;7.35;;;3.40;;
71152;SDS011;58822;51.438;5.436;2022-07-23T07:21:20;5.57;;;2.95;;
71152;SDS011;58822;51.438;5.436;2022-07-23T07:23:46;5.95;;;3.28;;
71152;SDS011;58822;51.438;5.436;2022-07-23T07:26:11;5.25;;;3.10;;
71152;SDS011;58822;51.438;5.436;2022-07-23T07:28:37;4.97;;;3.05;;
71152;SDS011;58822;51.438;5.436;2022-07-23T07:31:02;12.98;;;2.92;;
71152;SDS011;58822;51.438;5.436;2022-07-23T07:33:28;6.97;;;3.03;;
71152;SDS011;58822;51.438;5.436;2022-07-23T07:35:54;5.47;;;3.33;;
71152;SDS011;58822;51.438;5.436;2022-07-23T07:38:19;7.68;;;3.50;;
71152;SDS011;58822;51.438;5.436;2022-07-23T07:40:45;6.65;;;3.05;;
71152;SDS011;58822;51.438;5.436;2022-07-23T07:43:10;7.43;;;3.00;;
71152;SDS011;58822;51.438;5.436;2022-07-23T07:45:35;6.88;;;3.05;;
71152;SDS011;58822;51.438;5.436;2022-07-23T07:48:01;6.35;;;3.25;;
71152;SDS011;58822;51.438;5.436;2022-07-23T07:50:26;7.35;;;3.00;;
71152;SDS011;58822;51.438;5.436;2022-07-23T07:52:51;8.18;;;3.15;;
71152;SDS011;58822;51.438;5.436;2022-07-23T07:55:17;8.18;;;3.72;;
71152;SDS011;58822;51.438;5.436;2022-07-23T07:57:42;10.25;;;3.20;;
71152;SDS011;58822;51.438;5.436;2022-07-23T08:00:08;7.82;;;3.20;;
71152;SDS011;58822;51.438;5.436;2022-07-23T08:02:49;7.40;;;3.10;;
71152;SDS011;58822;51.438;5.436;2022-07-23T08:05:18;10.23;;;3.10;;
71152;SDS011;58822;51.438;5.436;2022-07-23T08:07:48;4.72;;;2.83;;
71152;SDS011;58822;51.438;5.436;2022-07-23T08:10:13;8.48;;;3.00;;
71152;SDS011;58822;51.438;5.436;2022-07-23T08:12:43;9.20;;;2.80;;
71152;SDS011;58822;51.438;5.436;2022-07-23T08:15:14;6.22;;;2.60;;
71152;SDS011;58822;51.438;5.436;2022-07-23T08:17:43;7.43;;;2.45;;
71152;SDS011;58822;51.438;5.436;2022-07-23T08:20:11;11.87;;;2.73;;
71152;SDS011;58822;51.438;5.436;2022-07-23T08:25:29;5.68;;;2.70;;
71152;SDS011;58822;51.438;5.436;2022-07-23T08:28:02;9.13;;;2.45;;
71152;SDS011;58822;51.438;5.436;2022-07-23T08:30:30;6.00;;;2.40;;
71152;SDS011;58822;51.438;5.436;2022-07-23T08:33:00;4.82;;;2.72;;
71152;SDS011;58822;51.438;5.436;2022-07-23T08:35:28;5.43;;;2.60;;
71152;SDS011;58822;51.438;5.436;2022-07-23T08:37:55;6.15;;;2.50;;
71152;SDS011;58822;51.438;5.436;2022-07-23T08:40:21;5.95;;;2.60;;
71152;SDS011;58822;51.438;5.436;2022-07-23T08:42:49;4.43;;;2.50;;
71152;SDS011;58822;51.438;5.436;2022-07-23T08:45:16;6.00;;;2.88;;
71152;SDS011;58822;51.438;5.436;2022-07-23T08:47:44;5.80;;;2.60;;
71152;SDS011;58822;51.438;5.436;2022-07-23T08:50:09;6.40;;;2.63;;
71152;SDS011;58822;51.438;5.436;2022-07-23T08:52:36;5.10;;;2.45;;
71152;SDS011;58822;51.438;5.436;2022-07-23T08:55:02;8.25;;;2.50;;
71152;SDS011;58822;51.438;5.436;2022-07-23T08:57:29;7.07;;;2.30;;
71152;SDS011;58822;51.438;5.436;2022-07-23T08:59:54;4.72;;;2.58;;
71152;SDS011;58822;51.438;5.436;2022-07-23T09:02:20;5.97;;;2.50;;
71152;SDS011;58822;51.438;5.436;2022-07-23T09:04:45;6.13;;;2.78;;
71152;SDS011;58822;51.438;5.436;2022-07-23T09:07:10;6.72;;;3.10;;
71152;SDS011;58822;51.438;5.436;2022-07-23T09:09:36;8.45;;;3.03;;
71152;SDS011;58822;51.438;5.436;2022-07-23T09:12:05;5.13;;;2.72;;
71152;SDS011;58822;51.438;5.436;2022-07-23T09:14:50;6.88;;;3.85;;
71152;SDS011;58822;51.438;5.436;2022-07-23T09:17:17;5.50;;;3.08;;
71152;SDS011;58822;51.438;5.436;2022-07-23T09:19:43;5.30;;;3.25;;
71152;SDS011;58822;51.438;5.436;2022-07-23T09:22:16;7.00;;;3.20;;
71152;SDS011;58822;51.438;5.436;2022-07-23T09:25:08;6.75;;;3.03;;
71152;SDS011;58822;51.438;5.436;2022-07-23T09:30:23;8.13;;;3.50;;
71152;SDS011;58822;51.438;5.436;2022-07-23T09:35:49;8.15;;;3.22;;
71152;SDS011;58822;51.438;5.436;2022-07-23T09:38:16;7.22;;;3.13;;
71152;SDS011;58822;51.438;5.436;2022-07-23T09:40:43;8.93;;;3.00;;
71152;SDS011;58822;51.438;5.436;2022-07-23T09:43:09;12.30;;;3.30;;
71152;SDS011;58822;51.438;5.436;2022-07-23T09:45:34;7.57;;;3.33;;
71152;SDS011;58822;51.438;5.436;2022-07-23T09:48:16;5.35;;;2.95;;
71152;SDS011;58822;51.438;5.436;2022-07-23T09:50:42;7.15;;;3.00;;
71152;SDS011;58822;51.438;5.436;2022-07-23T09:53:09;6.15;;;3.10;;
71152;SDS011;58822;51.438;5.436;2022-07-23T09:55:48;7.00;;;3.00;;
71152;SDS011;58822;51.438;5.436;2022-07-23T09:58:13;5.95;;;3.00;;
71152;SDS011;58822;51.438;5.436;2022-07-23T10:00:39;7.05;;;2.92;;
71152;SDS011;58822;51.438;5.436;2022-07-23T10:03:05;5.57;;;2.75;;
71152;SDS011;58822;51.438;5.436;2022-07-23T10:05:31;8.45;;;2.90;;
71152;SDS011;58822;51.438;5.436;2022-07-23T10:07:59;5.70;;;2.53;;
71152;SDS011;58822;51.438;5.436;2022-07-23T10:12:54;5.97;;;2.85;;
71152;SDS011;58822;51.438;5.436;2022-07-23T10:15:39;6.13;;;2.80;;
71152;SDS011;58822;51.438;5.436;2022-07-23T10:18:06;6.20;;;3.10;;
71152;SDS011;58822;51.438;5.436;2022-07-23T10:20:34;6.85;;;2.90;;
71152;SDS011;58822;51.438;5.436;2022-07-23T10:25:51;6.15;;;2.90;;
71152;SDS011;58822;51.438;5.436;2022-07-23T10:28:41;7.07;;;3.20;;
71152;SDS011;58822;51.438;5.436;2022-07-23T10:33:57;7.57;;;2.85;;
71152;SDS011;58822;51.438;5.436;2022-07-23T10:39:25;5.30;;;2.30;;
71152;SDS011;58822;51.438;5.436;2022-07-23T10:42:07;4.10;;;2.60;;
71152;SDS011;58822;51.438;5.436;2022-07-23T10:44:46;5.90;;;2.30;;
71152;SDS011;58822;51.438;5.436;2022-07-23T10:47:20;6.57;;;2.65;;
71152;SDS011;58822;51.438;5.436;2022-07-23T10:58:03;4.43;;;2.20;;
71152;SDS011;58822;51.438;5.436;2022-07-23T11:00:30;4.70;;;2.50;;
71152;SDS011;58822;51.438;5.436;2022-07-23T11:02:57;3.85;;;2.00;;
71152;SDS011;58822;51.438;5.436;2022-07-23T11:05:39;3.90;;;2.10;;
71152;SDS011;58822;51.438;5.436;2022-07-23T11:08:11;4.60;;;1.95;;
71152;SDS011;58822;51.438;5.436;2022-07-23T11:10:44;6.32;;;2.17;;
71152;SDS011;58822;51.438;5.436;2022-07-23T11:32:03;4.00;;;2.10;;
71152;SDS011;58822;51.438;5.436;2022-07-23T11:34:44;3.58;;;2.00;;
71152;SDS011;58822;51.438;5.436;2022-07-23T11:37:31;6.85;;;1.80;;
71152;SDS011;58822;51.438;5.436;2022-07-23T11:40:11;5.00;;;1.83;;
71152;SDS011;58822;51.438;5.436;2022-07-23T11:43:00;3.17;;;1.83;;
71152;SDS011;58822;51.438;5.436;2022-07-23T11:45:35;5.00;;;2.05;;
71152;SDS011;58822;51.438;5.436;2022-07-23T11:48:21;3.47;;;1.95;;
71152;SDS011;58822;51.438;5.436;2022-07-23T11:50:49;5.82;;;2.10;;
71152;SDS011;58822;51.438;5.436;2022-07-23T11:53:22;3.33;;;1.83;;
71152;SDS011;58822;51.438;5.436;2022-07-23T11:55:47;4.75;;;2.03;;
71152;SDS011;58822;51.438;5.436;2022-07-23T11:58:13;8.32;;;2.20;;
71152;SDS011;58822;51.438;5.436;2022-07-23T12:00:44;4.28;;;2.20;;
71152;SDS011;58822;51.438;5.436;2022-07-23T12:03:10;8.40;;;1.90;;
71152;SDS011;58822;51.438;5.436;2022-07-23T12:05:36;3.33;;;2.10;;
71152;SDS011;58822;51.438;5.436;2022-07-23T12:08:04;7.13;;;2.38;;
71152;SDS011;58822;51.438;5.436;2022-07-23T12:12:38;7.10;;;2.28;;
71152;SDS011;58822;51.438;5.436;2022-07-23T12:15:14;6.65;;;2.05;;
71152;SDS011;58822;51.438;5.436;2022-07-23T12:47:57;5.37;;;2.00;;
71152;SDS011;58822;51.438;5.436;2022-07-23T12:50:33;4.10;;;1.77;;
71152;SDS011;58822;51.438;5.436;2022-07-23T12:53:38;3.13;;;1.90;;
71152;SDS011;58822;51.438;5.436;2022-07-23T12:56:01;6.25;;;2.03;;
71152;SDS011;58822;51.438;5.436;2022-07-23T12:58:50;2.58;;;1.55;;
71152;SDS011;58822;51.438;5.436;2022-07-23T13:04:06;5.78;;;1.85;;
71152;SDS011;58822;51.438;5.436;2022-07-23T13:06:43;3.60;;;1.80;;
71152;SDS011;58822;51.438;5.436;2022-07-23T13:09:14;4.72;;;2.00;;
71152;SDS011;58822;51.438;5.436;2022-07-23T13:14:07;5.53;;;1.90;;
71152;SDS011;58822;51.438;5.436;2022-07-23T13:16:32;5.60;;;1.90;;
71152;SDS011;58822;51.438;5.436;2022-07-23T13:18:59;3.00;;;1.90;;
71152;SDS011;58822;51.438;5.436;2022-07-23T13:21:25;5.63;;;1.85;;
71152;SDS011;58822;51.438;5.436;2022-07-23T13:23:52;4.03;;;1.90;;
71152;SDS011;58822;51.438;5.436;2022-07-23T13:26:18;3.85;;;1.92;;
71152;SDS011;58822;51.438;5.436;2022-07-23T13:28:44;4.15;;;1.73;;
71152;SDS011;58822;51.438;5.436;2022-07-23T13:31:10;4.65;;;1.80;;
71152;SDS011;58822;51.438;5.436;2022-07-23T13:33:35;4.78;;;2.00;;
71152;SDS011;58822;51.438;5.436;2022-07-23T13:36:01;3.40;;;1.90;;
71152;SDS011;58822;51.438;5.436;2022-07-23T13:38:27;3.38;;;2.00;;
71152;SDS011;58822;51.438;5.436;2022-07-23T13:40:52;4.97;;;2.10;;
71152;SDS011;58822;51.438;5.436;2022-07-23T13:43:19;4.70;;;2.00;;
71152;SDS011;58822;51.438;5.436;2022-07-23T13:45:46;3.17;;;1.80;;
71152;SDS011;58822;51.438;5.436;2022-07-23T13:48:12;5.07;;;2.05;;
71152;SDS011;58822;51.438;5.436;2022-07-23T13:50:39;3.40;;;2.08;;
71152;SDS011;58822;51.438;5.436;2022-07-23T13:53:07;5.10;;;1.70;;
71152;SDS011;58822;51.438;5.436;2022-07-23T13:55:38;3.75;;;2.13;;
71152;SDS011;58822;51.438;5.436;2022-07-23T13:58:05;4.28;;;1.95;;
71152;SDS011;58822;51.438;5.436;2022-07-23T14:00:31;5.15;;;1.90;;
71152;SDS011;58822;51.438;5.436;2022-07-23T14:02:58;3.60;;;2.03;;
71152;SDS011;58822;51.438;5.436;2022-07-23T14:05:23;5.40;;;2.28;;
71152;SDS011;58822;51.438;5.436;2022-07-23T14:07:49;5.22;;;2.10;;
71152;SDS011;58822;51.438;5.436;2022-07-23T14:10:16;4.20;;;2.22;;
71152;SDS011;58822;51.438;5.436;2022-07-23T14:12:44;5.50;;;1.92;;
71152;SDS011;58822;51.438;5.436;2022-07-23T14:15:10;10.35;;;2.30;;
71152;SDS011;58822;51.438;5.436;2022-07-23T14:17:36;5.57;;;2.17;;
71152;SDS011;58822;51.438;5.436;2022-07-23T14:20:04;2.92;;;1.90;;
71152;SDS011;58822;51.438;5.436;2022-07-23T14:22:30;2.53;;;1.90;;
71152;SDS011;58822;51.438;5.436;2022-07-23T14:24:58;6.13;;;2.15;;
71152;SDS011;58822;51.438;5.436;2022-07-23T14:27:25;3.22;;;1.92;;
71152;SDS011;58822;51.438;5.436;2022-07-23T14:29:55;3.38;;;2.00;;
71152;SDS011;58822;51.438;5.436;2022-07-23T14:32:21;3.25;;;2.00;;
71152;SDS011;58822;51.438;5.436;2022-07-23T14:34:47;5.55;;;1.90;;
71152;SDS011;58822;51.438;5.436;2022-07-23T14:37:13;4.30;;;2.10;;
71152;SDS011;58822;51.438;5.436;2022-07-23T14:39:40;5.05;;;2.10;;
71152;SDS011;58822;51.438;5.436;2022-07-23T14:42:06;3.38;;;1.90;;
71152;SDS011;58822;51.438;5.436;2022-07-23T14:44:32;3.10;;;2.08;;
71152;SDS011;58822;51.438;5.436;2022-07-23T14:47:01;3.65;;;2.20;;
71152;SDS011;58822;51.438;5.436;2022-07-23T14:49:29;7.97;;;2.08;;
71152;SDS011;58822;51.438;5.436;2022-07-23T14:51:54;4.07;;;2.00;;
71152;SDS011;58822;51.438;5.436;2022-07-23T14:54:20;3.45;;;2.08;;
71152;SDS011;58822;51.438;5.436;2022-07-23T14:56:46;2.80;;;2.13;;
71152;SDS011;58822;51.438;5.436;2022-07-23T14:59:12;9.43;;;2.13;;
71152;SDS011;58822;51.438;5.436;2022-07-23T15:01:38;4.43;;;2.05;;
71152;SDS011;58822;51.438;5.436;2022-07-23T15:04:05;4.80;;;2.40;;
71152;SDS011;58822;51.438;5.436;2022-07-23T15:06:31;6.18;;;2.38;;
71152;SDS011;58822;51.438;5.436;2022-07-23T15:08:58;4.20;;;2.15;;
71152;SDS011;58822;51.438;5.436;2022-07-23T15:11:25;5.20;;;2.30;;
71152;SDS011;58822;51.438;5.436;2022-07-23T15:13:56;6.28;;;2.30;;
71152;SDS011;58822;51.438;5.436;2022-07-23T15:16:21;4.32;;;2.40;;
71152;SDS011;58822;51.438;5.436;2022-07-23T15:18:47;7.20;;;2.20;;
71152;SDS011;58822;51.438;5.436;2022-07-23T15:21:15;8.90;;;2.20;;
71152;SDS011;58822;51.438;5.436;2022-07-23T15:23:40;4.45;;;2.30;;
71152;SDS011;58822;51.438;5.436;2022-07-23T15:26:06;6.50;;;2.15;;
71152;SDS011;58822;51.438;5.436;2022-07-23T15:28:32;4.53;;;2.30;;
71152;SDS011;58822;51.438;5.436;2022-07-23T15:30:57;3.97;;;2.20;;
71152;SDS011;58822;51.438;5.436;2022-07-23T15:33:23;5.05;;;2.50;;
71152;SDS011;58822;51.438;5.436;2022-07-23T15:35:48;6.25;;;3.33;;
71152;SDS011;58822;51.438;5.436;2022-07-23T15:38:14;7.57;;;4.25;;
71152;SDS011;58822;51.438;5.436;2022-07-23T15:40:40;6.13;;;2.78;;
71152;SDS011;58822;51.438;5.436;2022-07-23T15:43:05;6.03;;;2.70;;
71152;SDS011;58822;51.438;5.436;2022-07-23T15:45:30;5.65;;;2.70;;
71152;SDS011;58822;51.438;5.436;2022-07-23T15:47:56;3.95;;;2.35;;
71152;SDS011;58822;51.438;5.436;2022-07-23T15:50:22;4.13;;;2.67;;
71152;SDS011;58822;51.438;5.436;2022-07-23T15:52:47;4.97;;;2.75;;
71152;SDS011;58822;51.438;5.436;2022-07-23T15:55:13;5.85;;;2.60;;
71152;SDS011;58822;51.438;5.436;2022-07-23T15:57:41;8.32;;;2.63;;
71152;SDS011;58822;51.438;5.436;2022-07-23T16:00:07;5.07;;;2.88;;
71152;SDS011;58822;51.438;5.436;2022-07-23T16:02:34;10.40;;;2.58;;
71152;SDS011;58822;51.438;5.436;2022-07-23T16:04:59;5.70;;;2.35;;
71152;SDS011;58822;51.438;5.436;2022-07-23T16:07:25;4.35;;;2.33;;
71152;SDS011;58822;51.438;5.436;2022-07-23T16:09:50;6.25;;;2.47;;
71152;SDS011;58822;51.438;5.436;2022-07-23T16:12:16;7.60;;;2.60;;
71152;SDS011;58822;51.438;5.436;2022-07-23T16:14:41;6.40;;;2.50;;
71152;SDS011;58822;51.438;5.436;2022-07-23T16:17:07;6.43;;;2.50;;
71152;SDS011;58822;51.438;5.436;2022-07-23T16:19:32;6.13;;;2.60;;
71152;SDS011;58822;51.438;5.436;2022-07-23T16:21:58;5.97;;;2.80;;
71152;SDS011;58822;51.438;5.436;2022-07-23T16:24:24;6.07;;;2.35;;
71152;SDS011;58822;51.438;5.436;2022-07-23T16:26:49;4.55;;;2.50;;
71152;SDS011;58822;51.438;5.436;2022-07-23T16:29:15;4.95;;;2.45;;
71152;SDS011;58822;51.438;5.436;2022-07-23T16:31:40;3.88;;;2.58;;
71152;SDS011;58822;51.438;5.436;2022-07-23T16:34:06;7.68;;;3.13;;
71152;SDS011;58822;51.438;5.436;2022-07-23T16:36:31;7.85;;;2.90;;
71152;SDS011;58822;51.438;5.436;2022-07-23T16:38:58;5.80;;;2.60;;
71152;SDS011;58822;51.438;5.436;2022-07-23T16:41:24;7.25;;;3.00;;
71152;SDS011;58822;51.438;5.436;2022-07-23T16:43:49;6.18;;;2.88;;
71152;SDS011;58822;51.438;5.436;2022-07-23T16:46:15;14.07;;;2.92;;
71152;SDS011;58822;51.438;5.436;2022-07-23T16:48:40;8.52;;;3.55;;
71152;SDS011;58822;51.438;5.436;2022-07-23T16:51:06;7.05;;;3.17;;
71152;SDS011;58822;51.438;5.436;2022-07-23T16:53:31;8.00;;;3.25;;
71152;SDS011;58822;51.438;5.436;2022-07-23T16:55:57;7.72;;;2.70;;
71152;SDS011;58822;51.438;5.436;2022-07-23T16:58:23;6.47;;;2.60;;
71152;SDS011;58822;51.438;5.436;2022-07-23T17:00:48;7.40;;;2.50;;
71152;SDS011;58822;51.438;5.436;2022-07-23T17:03:14;5.15;;;2.85;;
71152;SDS011;58822;51.438;5.436;2022-07-23T17:05:39;8.45;;;2.90;;
71152;SDS011;58822;51.438;5.436;2022-07-23T17:08:05;8.57;;;2.70;;
71152;SDS011;58822;51.438;5.436;2022-07-23T17:10:30;7.05;;;2.83;;
71152;SDS011;58822;51.438;5.436;2022-07-23T17:12:57;4.60;;;2.70;;
71152;SDS011;58822;51.438;5.436;2022-07-23T17:15:23;4.30;;;2.63;;
71152;SDS011;58822;51.438;5.436;2022-07-23T17:17:49;6.90;;;2.90;;
71152;SDS011;58822;51.438;5.436;2022-07-23T17:20:15;7.18;;;2.90;;
71152;SDS011;58822;51.438;5.436;2022-07-23T17:22:41;6.93;;;3.10;;
71152;SDS011;58822;51.438;5.436;2022-07-23T17:25:07;6.38;;;2.83;;
71152;SDS011;58822;51.438;5.436;2022-07-23T17:27:38;6.68;;;3.00;;
71152;SDS011;58822;51.438;5.436;2022-07-23T17:30:08;14.40;;;2.97;;
71152;SDS011;58822;51.438;5.436;2022-07-23T17:32:34;6.20;;;2.90;;
71152;SDS011;58822;51.438;5.436;2022-07-23T17:35:00;5.18;;;3.05;;
71152;SDS011;58822;51.438;5.436;2022-07-23T17:37:25;6.18;;;3.67;;
71152;SDS011;58822;51.438;5.436;2022-07-23T17:39:50;5.57;;;3.10;;
71152;SDS011;58822;51.438;5.436;2022-07-23T17:42:16;5.45;;;3.13;;
71152;SDS011;58822;51.438;5.436;2022-07-23T17:44:41;4.47;;;2.75;;
71152;SDS011;58822;51.438;5.436;2022-07-23T17:47:07;4.68;;;2.50;;
71152;SDS011;58822;51.438;5.436;2022-07-23T17:49:32;4.22;;;2.45;;
71152;SDS011;58822;51.438;5.436;2022-07-23T17:52:01;4.40;;;2.53;;
71152;SDS011;58822;51.438;5.436;2022-07-23T17:54:28;7.07;;;2.97;;
71152;SDS011;58822;51.438;5.436;2022-07-23T17:56:54;4.78;;;2.70;;
71152;SDS011;58822;51.438;5.436;2022-07-23T17:59:21;9.18;;;3.28;;
71152;SDS011;58822;51.438;5.436;2022-07-23T18:01:46;7.25;;;3.63;;
71152;SDS011;58822;51.438;5.436;2022-07-23T18:04:12;5.40;;;3.53;;
71152;SDS011;58822;51.438;5.436;2022-07-23T18:06:38;5.13;;;3.30;;
71152;SDS011;58822;51.438;5.436;2022-07-23T18:09:10;4.25;;;2.72;;
71152;SDS011;58822;51.438;5.436;2022-07-23T18:11:43;5.85;;;2.80;;
71152;SDS011;58822;51.438;5.436;2022-07-23T18:14:09;8.30;;;3.80;;
71152;SDS011;58822;51.438;5.436;2022-07-23T18:16:35;11.13;;;3.30;;
71152;SDS011;58822;51.438;5.436;2022-07-23T18:19:02;4.47;;;2.90;;
71152;SDS011;58822;51.438;5.436;2022-07-23T18:21:28;8.70;;;2.95;;
71152;SDS011;58822;51.438;5.436;2022-07-23T18:23:53;5.43;;;3.08;;
71152;SDS011;58822;51.438;5.436;2022-07-23T18:26:19;7.20;;;2.83;;
71152;SDS011;58822;51.438;5.436;2022-07-23T18:28:51;4.93;;;3.03;;
71152;SDS011;58822;51.438;5.436;2022-07-23T18:31:17;5.28;;;2.80;;
71152;SDS011;58822;51.438;5.436;2022-07-23T18:33:42;5.05;;;2.67;;
71152;SDS011;58822;51.438;5.436;2022-07-23T18:36:08;5.38;;;2.72;;
71152;SDS011;58822;51.438;5.436;2022-07-23T18:38:35;4.22;;;2.63;;
71152;SDS011;58822;51.438;5.436;2022-07-23T18:41:00;5.05;;;2.80;;
71152;SDS011;58822;51.438;5.436;2022-07-23T18:43:26;5.35;;;2.88;;
71152;SDS011;58822;51.438;5.436;2022-07-23T18:45:51;8.77;;;3.20;;
71152;SDS011;58822;51.438;5.436;2022-07-23T18:48:17;5.32;;;2.85;;
71152;SDS011;58822;51.438;5.436;2022-07-23T18:50:43;7.57;;;2.80;;
71152;SDS011;58822;51.438;5.436;2022-07-23T18:53:10;5.78;;;2.80;;
71152;SDS011;58822;51.438;5.436;2022-07-23T18:55:36;5.40;;;3.10;;
71152;SDS011;58822;51.438;5.436;2022-07-23T18:58:03;4.75;;;2.97;;
71152;SDS011;58822;51.438;5.436;2022-07-23T19:00:30;5.45;;;3.10;;
71152;SDS011;58822;51.438;5.436;2022-07-23T19:02:57;7.55;;;3.03;;
71152;SDS011;58822;51.438;5.436;2022-07-23T19:05:24;5.50;;;3.10;;
71152;SDS011;58822;51.438;5.436;2022-07-23T19:07:50;5.68;;;3.58;;
71152;SDS011;58822;51.438;5.436;2022-07-23T19:10:15;6.63;;;3.40;;
71152;SDS011;58822;51.438;5.436;2022-07-23T19:12:41;6.40;;;3.25;;
71152;SDS011;58822;51.438;5.436;2022-07-23T19:15:06;7.03;;;3.47;;
71152;SDS011;58822;51.438;5.436;2022-07-23T19:17:32;5.60;;;3.50;;
71152;SDS011;58822;51.438;5.436;2022-07-23T19:19:58;6.18;;;3.70;;
71152;SDS011;58822;51.438;5.436;2022-07-23T19:22:23;5.22;;;3.33;;
71152;SDS011;58822;51.438;5.436;2022-07-23T19:24:51;6.45;;;3.25;;
71152;SDS011;58822;51.438;5.436;2022-07-23T19:27:18;5.07;;;3.17;;
71152;SDS011;58822;51.438;5.436;2022-07-23T19:29:43;6.10;;;3.33;;
71152;SDS011;58822;51.438;5.436;2022-07-23T19:32:09;5.78;;;3.00;;
71152;SDS011;58822;51.438;5.436;2022-07-23T19:34:34;5.80;;;3.10;;
71152;SDS011;58822;51.438;5.436;2022-07-23T19:37:00;5.50;;;3.20;;
71152;SDS011;58822;51.438;5.436;2022-07-23T19:39:27;10.73;;;3.40;;
71152;SDS011;58822;51.438;5.436;2022-07-23T19:41:52;6.38;;;3.15;;
71152;SDS011;58822;51.438;5.436;2022-07-23T19:44:18;7.97;;;3.08;;
71152;SDS011;58822;51.438;5.436;2022-07-23T19:46:43;5.95;;;2.85;;
71152;SDS011;58822;51.438;5.436;2022-07-23T19:49:09;8.13;;;2.97;;
71152;SDS011;58822;51.438;5.436;2022-07-23T19:51:34;4.57;;;3.00;;
71152;SDS011;58822;51.438;5.436;2022-07-23T19:53:59;5.07;;;3.20;;
71152;SDS011;58822;51.438;5.436;2022-07-23T19:56:25;5.43;;;3.20;;
71152;SDS011;58822;51.438;5.436;2022-07-23T19:58:50;6.03;;;3.15;;
71152;SDS011;58822;51.438;5.436;2022-07-23T20:01:16;8.55;;;3.53;;
71152;SDS011;58822;51.438;5.436;2022-07-23T20:03:41;5.47;;;3.45;;
71152;SDS011;58822;51.438;5.436;2022-07-23T20:06:07;7.70;;;4.43;;
71152;SDS011;58822;51.438;5.436;2022-07-23T20:08:33;8.25;;;4.75;;
71152;SDS011;58822;51.438;5.436;2022-07-23T20:10:58;8.05;;;4.50;;
71152;SDS011;58822;51.438;5.436;2022-07-23T20:13:24;6.63;;;3.85;;
71152;SDS011;58822;51.438;5.436;2022-07-23T20:15:49;11.30;;;4.03;;
71152;SDS011;58822;51.438;5.436;2022-07-23T20:18:15;10.02;;;5.38;;
71152;SDS011;58822;51.438;5.436;2022-07-23T20:20:41;8.52;;;6.05;;
71152;SDS011;58822;51.438;5.436;2022-07-23T20:23:07;10.02;;;6.35;;
71152;SDS011;58822;51.438;5.436;2022-07-23T20:25:32;11.10;;;6.10;;
71152;SDS011;58822;51.438;5.436;2022-07-23T20:27:58;9.65;;;5.35;;
71152;SDS011;58822;51.438;5.436;2022-07-23T20:30:25;7.78;;;4.00;;
71152;SDS011;58822;51.438;5.436;2022-07-23T20:32:50;10.35;;;3.70;;
71152;SDS011;58822;51.438;5.436;2022-07-23T20:35:16;7.45;;;3.75;;
71152;SDS011;58822;51.438;5.436;2022-07-23T20:37:41;7.07;;;3.78;;
71152;SDS011;58822;51.438;5.436;2022-07-23T20:40:07;12.48;;;4.30;;
71152;SDS011;58822;51.438;5.436;2022-07-23T20:42:33;6.45;;;3.60;;
71152;SDS011;58822;51.438;5.436;2022-07-23T20:44:59;7.43;;;3.40;;
71152;SDS011;58822;51.438;5.436;2022-07-23T20:47:24;6.50;;;4.05;;
71152;SDS011;58822;51.438;5.436;2022-07-23T20:49:49;10.15;;;3.83;;
71152;SDS011;58822;51.438;5.436;2022-07-23T20:52:15;7.40;;;3.70;;
71152;SDS011;58822;51.438;5.436;2022-07-23T20:54:40;7.47;;;3.78;;
71152;SDS011;58822;51.438;5.436;2022-07-23T20:57:07;10.73;;;3.90;;
71152;SDS011;58822;51.438;5.436;2022-07-23T20:59:32;7.10;;;4.35;;
71152;SDS011;58822;51.438;5.436;2022-07-23T21:01:58;7.10;;;4.07;;
71152;SDS011;58822;51.438;5.436;2022-07-23T21:04:23;6.38;;;3.80;;
71152;SDS011;58822;51.438;5.436;2022-07-23T21:06:48;7.55;;;3.70;;
71152;SDS011;58822;51.438;5.436;2022-07-23T21:09:14;8.23;;;3.58;;
71152;SDS011;58822;51.438;5.436;2022-07-23T21:11:39;7.18;;;3.75;;
71152;SDS011;58822;51.438;5.436;2022-07-23T21:14:04;7.32;;;3.45;;
71152;SDS011;58822;51.438;5.436;2022-07-23T21:16:30;15.65;;;3.60;;
71152;SDS011;58822;51.438;5.436;2022-07-23T21:18:55;7.22;;;3.50;;
71152;SDS011;58822;51.438;5.436;2022-07-23T21:21:21;5.93;;;3.88;;
71152;SDS011;58822;51.438;5.436;2022-07-23T21:23:47;6.55;;;3.72;;
71152;SDS011;58822;51.438;5.436;2022-07-23T21:26:14;5.72;;;3.88;;
71152;SDS011;58822;51.438;5.436;2022-07-23T21:28:41;6.30;;;4.00;;
71152;SDS011;58822;51.438;5.436;2022-07-23T21:31:06;6.78;;;4.10;;
71152;SDS011;58822;51.438;5.436;2022-07-23T21:33:32;7.63;;;4.22;;
71152;SDS011;58822;51.438;5.436;2022-07-23T21:35:58;7.80;;;4.22;;
71152;SDS011;58822;51.438;5.436;2022-07-23T21:38:24;7.95;;;4.50;;
71152;SDS011;58822;51.438;5.436;2022-07-23T21:40:49;7.88;;;4.63;;
71152;SDS011;58822;51.438;5.436;2022-07-23T21:43:14;12.25;;;5.18;;
71152;SDS011;58822;51.438;5.436;2022-07-23T21:45:40;12.25;;;5.72;;
71152;SDS011;58822;51.438;5.436;2022-07-23T21:48:05;9.57;;;5.47;;